createdAt,value
2018-12-29T00:00:33.577Z,18.50
2018-12-29T00:02:59.865Z,15.87
2018-12-29T00:05:26.121Z,16.73
2018-12-29T00:07:52.772Z,18.40
2018-12-29T00:10:19.369Z,14.30
2018-12-29T00:12:45.628Z,16.37
2018-12-29T00:15:12.308Z,13.33
2018-12-29T00:17:39.185Z,12.43
2018-12-29T00:20:05.805Z,15.23
2018-12-29T00:22:32.401Z,12.77
2018-12-29T00:24:59.033Z,14.13
2018-12-29T00:27:25.266Z,12.83
2018-12-29T00:29:51.909Z,12.63
2018-12-29T00:32:18.518Z,14.53
2018-12-29T00:34:45.385Z,13.97
2018-12-29T00:37:11.621Z,13.33
2018-12-29T00:39:40.138Z,11.37
2018-12-29T00:42:06.362Z,16.47
2018-12-29T00:44:32.991Z,14.53
2018-12-29T00:46:59.218Z,13.03
2018-12-29T00:49:25.485Z,13.80
2018-12-29T00:51:51.725Z,17.23
2018-12-29T00:54:17.982Z,17.30
2018-12-29T00:56:44.590Z,18.87
2018-12-29T00:59:11.205Z,14.97
2018-12-29T01:01:37.790Z,13.93
2018-12-29T01:04:04.090Z,13.37
2018-12-29T01:06:30.994Z,13.83
2018-12-29T01:08:57.613Z,13.27
2018-12-29T01:11:24.203Z,13.83
2018-12-29T01:13:50.582Z,14.07
2018-12-29T01:16:17.187Z,16.93
2018-12-29T01:18:43.789Z,15.00
2018-12-29T01:21:10.398Z,14.20
2018-12-29T01:23:36.631Z,14.27
2018-12-29T01:26:03.669Z,13.77
2018-12-29T01:28:29.805Z,16.30
2018-12-29T01:30:56.441Z,22.27
2018-12-29T01:33:22.674Z,16.73
2018-12-29T01:35:48.931Z,16.30
2018-12-29T01:38:15.158Z,12.80
2018-12-29T01:40:41.897Z,16.97
2018-12-29T01:43:08.129Z,15.63
2018-12-29T01:45:34.400Z,17.20
2018-12-29T01:48:00.625Z,19.27
2018-12-29T01:50:27.248Z,19.40
2018-12-29T01:52:53.488Z,14.37
2018-12-29T01:55:19.748Z,16.57
2018-12-29T01:57:46.337Z,19.53
2018-12-29T02:00:12.595Z,16.03
2018-12-29T02:02:39.233Z,15.70
2018-12-29T02:05:05.943Z,14.10
2018-12-29T02:07:32.560Z,14.83
2018-12-29T02:09:58.818Z,19.63
2018-12-29T02:12:25.678Z,20.73
2018-12-29T02:14:51.942Z,17.10
2018-12-29T02:17:18.529Z,17.43
2018-12-29T02:19:45.234Z,18.23
2018-12-29T02:22:11.754Z,17.27
2018-12-29T02:24:37.996Z,17.53
2018-12-29T02:27:04.621Z,16.37
2018-12-29T02:29:30.842Z,17.60
2018-12-29T02:31:57.122Z,16.90
2018-12-29T02:34:23.349Z,15.13
2018-12-29T02:36:50.423Z,15.20
2018-12-29T02:39:16.960Z,14.67
2018-12-29T02:41:43.318Z,12.57
2018-12-29T02:44:09.913Z,14.10
2018-12-29T02:46:36.193Z,13.10
2018-12-29T02:49:02.445Z,12.17
2018-12-29T02:51:28.702Z,14.77
2018-12-29T02:53:54.925Z,13.97
2018-12-29T02:56:21.538Z,13.63
2018-12-29T02:58:47.771Z,16.03
2018-12-29T03:01:14.040Z,15.40
2018-12-29T03:03:40.301Z,12.33
2018-12-29T03:06:06.586Z,10.13
2018-12-29T03:08:33.206Z,11.30
2018-12-29T03:11:00.103Z,11.13
2018-12-29T03:13:26.702Z,14.23
2018-12-29T03:15:52.967Z,12.50
2018-12-29T03:18:19.469Z,13.97
2018-12-29T03:20:45.716Z,15.87
2018-12-29T03:23:11.977Z,21.70
2018-12-29T03:25:38.566Z,13.37
2018-12-29T03:28:05.189Z,16.50
2018-12-29T03:30:31.416Z,17.63
2018-12-29T03:32:58.042Z,19.57
2018-12-29T03:35:24.266Z,18.60
2018-12-29T03:37:50.535Z,17.87
2018-12-29T03:40:16.775Z,16.70
2018-12-29T03:42:43.385Z,14.80
2018-12-29T03:45:09.610Z,16.23
2018-12-29T03:47:35.873Z,16.73
2018-12-29T03:50:02.588Z,13.00
2018-12-29T03:52:29.203Z,13.47
2018-12-29T03:54:55.437Z,16.00
2018-12-29T03:57:22.069Z,19.77
2018-12-29T03:59:48.293Z,18.47
2018-12-29T04:02:14.918Z,20.23
2018-12-29T04:04:41.539Z,17.87
2018-12-29T04:07:08.189Z,19.30
2018-12-29T04:09:34.498Z,16.83
2018-12-29T04:12:02.531Z,19.13
2018-12-29T04:14:28.754Z,20.70
2018-12-29T04:16:54.985Z,17.27
2018-12-29T04:19:21.618Z,19.57
2018-12-29T04:21:48.201Z,19.33
2018-12-29T04:24:14.798Z,18.60
2018-12-29T04:26:41.023Z,17.83
2018-12-29T04:29:07.309Z,18.20
2018-12-29T04:31:33.521Z,17.33
2018-12-29T04:33:59.785Z,18.83
2018-12-29T04:36:26.374Z,20.17
2018-12-29T04:38:53.115Z,22.07
2018-12-29T04:41:19.701Z,17.67
2018-12-29T04:43:46.155Z,23.67
2018-12-29T04:46:12.650Z,18.67
2018-12-29T04:48:38.901Z,20.00
2018-12-29T04:51:05.133Z,19.47
2018-12-29T04:53:31.760Z,18.47
2018-12-29T04:55:57.992Z,19.53
2018-12-29T04:58:24.597Z,22.97
2018-12-29T05:00:50.811Z,22.97
2018-12-29T05:03:17.433Z,18.90
2018-12-29T05:05:43.701Z,18.77
2018-12-29T05:08:10.310Z,16.33
2018-12-29T05:10:36.903Z,17.57
2018-12-29T05:13:03.533Z,17.17
2018-12-29T05:15:29.766Z,18.77
2018-12-29T05:17:56.359Z,17.73
2018-12-29T05:20:22.974Z,20.33
2018-12-29T05:22:49.199Z,17.27
2018-12-29T05:25:15.819Z,18.43
2018-12-29T05:27:42.399Z,20.10
2018-12-29T05:30:09.294Z,16.27
2018-12-29T05:32:35.878Z,15.60
2018-12-29T05:35:02.147Z,17.97
2018-12-29T05:37:28.389Z,15.07
2018-12-29T05:39:55.015Z,14.07
2018-12-29T05:42:21.597Z,13.47
2018-12-29T05:44:47.857Z,12.27
2018-12-29T05:47:14.357Z,14.97
2018-12-29T05:49:40.977Z,10.33
2018-12-29T05:52:07.199Z,10.90
2018-12-29T05:54:33.453Z,12.07
2018-12-29T05:57:00.042Z,13.00
2018-12-29T05:59:26.657Z,12.43
2018-12-29T06:01:53.259Z,13.67
2018-12-29T06:04:19.896Z,13.50
2018-12-29T06:06:46.154Z,11.70
2018-12-29T06:09:12.820Z,12.10
2018-12-29T06:11:39.409Z,14.47
2018-12-29T06:14:05.669Z,14.73
2018-12-29T06:16:32.001Z,16.93
2018-12-29T06:18:58.582Z,13.47
2018-12-29T06:21:25.201Z,9.73
2018-12-29T06:23:51.446Z,13.37
2018-12-29T06:26:17.952Z,10.23
2018-12-29T06:28:44.549Z,12.60
2018-12-29T06:31:11.153Z,12.60
2018-12-29T06:33:37.751Z,13.13
2018-12-29T06:36:04.021Z,12.80
2018-12-29T06:38:30.613Z,12.63
2018-12-29T06:40:56.865Z,11.67
2018-12-29T06:43:23.102Z,12.70
2018-12-29T06:45:49.729Z,11.77
2018-12-29T06:48:15.958Z,11.00
2018-12-29T06:50:42.227Z,9.93
2018-12-29T06:53:08.808Z,13.70
2018-12-29T06:55:35.069Z,11.70
2018-12-29T06:58:01.318Z,10.17
2018-12-29T07:00:27.942Z,10.40
2018-12-29T07:02:54.653Z,11.90
2018-12-29T07:05:20.934Z,12.27
2018-12-29T07:07:47.565Z,12.30
2018-12-29T07:10:14.215Z,12.83
2018-12-29T07:12:40.439Z,13.53
2018-12-29T07:15:07.129Z,12.03
2018-12-29T07:17:33.403Z,12.57
2018-12-29T07:19:59.640Z,14.03
2018-12-29T07:22:25.901Z,13.47
2018-12-29T07:24:52.497Z,11.87
2018-12-29T07:27:19.116Z,10.93
2018-12-29T07:29:45.337Z,10.50
2018-12-29T07:32:11.606Z,11.60
2018-12-29T07:34:37.830Z,10.27
2018-12-29T07:37:04.449Z,14.00
2018-12-29T07:39:31.042Z,12.83
2018-12-29T07:41:57.301Z,14.13
2018-12-29T07:44:23.537Z,16.47
2018-12-29T07:46:49.866Z,11.97
2018-12-29T07:49:16.478Z,13.10
2018-12-29T07:51:43.100Z,12.50
2018-12-29T07:54:09.695Z,12.93
2018-12-29T07:56:36.318Z,13.03
2018-12-29T07:59:02.550Z,13.37
2018-12-29T08:01:28.808Z,9.17
2018-12-29T08:03:55.397Z,11.83
2018-12-29T08:06:22.050Z,12.40
2018-12-29T08:08:48.309Z,13.77
2018-12-29T08:11:14.901Z,13.90
2018-12-29T08:13:41.521Z,11.97
2018-12-29T08:16:08.109Z,11.03
2018-12-29T08:18:34.358Z,11.50
2018-12-29T08:21:00.601Z,12.93
2018-12-29T08:23:27.121Z,13.17
2018-12-29T08:25:53.366Z,12.77
2018-12-29T08:28:19.981Z,15.23
2018-12-29T08:30:46.565Z,13.47
2018-12-29T08:33:13.186Z,12.90
2018-12-29T08:35:39.778Z,12.83
2018-12-29T08:38:06.382Z,14.53
2018-12-29T08:40:32.605Z,15.70
2018-12-29T08:42:59.221Z,15.87
2018-12-29T08:45:25.461Z,15.77
2018-12-29T08:47:51.727Z,14.80
2018-12-29T08:50:18.322Z,15.67
2018-12-29T08:52:44.931Z,14.50
2018-12-29T08:55:11.541Z,14.37
2018-12-29T08:57:37.797Z,13.07
2018-12-29T09:00:05.530Z,16.80
2018-12-29T09:02:32.141Z,13.63
2018-12-29T09:04:58.749Z,14.43
2018-12-29T09:07:25.050Z,12.83
2018-12-29T09:09:51.663Z,20.47
2018-12-29T09:12:19.349Z,14.40
2018-12-29T09:14:45.586Z,13.50
2018-12-29T09:17:12.529Z,13.57
2018-12-29T09:19:39.177Z,15.73
2018-12-29T09:22:05.774Z,13.53
2018-12-29T09:24:32.030Z,15.90
2018-12-29T09:26:58.263Z,13.53
2018-12-29T09:29:24.542Z,11.80
2018-12-29T09:31:50.762Z,17.30
2018-12-29T09:34:22.357Z,15.90
2018-12-29T09:36:45.403Z,11.47
2018-12-29T09:39:12.014Z,12.60
2018-12-29T09:41:38.607Z,12.07
2018-12-29T09:44:05.489Z,11.97
2018-12-29T09:46:32.077Z,14.27
2018-12-29T09:48:58.687Z,13.80
2018-12-29T09:51:25.277Z,11.93
2018-12-29T09:53:51.529Z,14.50
2018-12-29T09:56:18.118Z,17.83
2018-12-29T09:58:44.721Z,14.17
2018-12-29T10:01:11.313Z,14.10
2018-12-29T10:03:37.944Z,15.73
2018-12-29T10:06:04.589Z,14.37
2018-12-29T10:08:31.212Z,13.63
2018-12-29T10:10:57.828Z,14.53
2018-12-29T10:13:24.449Z,13.53
2018-12-29T10:15:51.042Z,14.03
2018-12-29T10:18:17.277Z,13.20
2018-12-29T10:20:43.525Z,16.97
2018-12-29T10:23:10.118Z,15.27
2018-12-29T10:25:36.734Z,16.87
2018-12-29T10:28:03.329Z,14.53
2018-12-29T10:30:29.596Z,12.50
2018-12-29T10:32:56.174Z,12.53
2018-12-29T10:35:22.421Z,11.13
2018-12-29T10:37:48.657Z,11.43
2018-12-29T10:40:15.273Z,12.27
2018-12-29T10:42:41.870Z,11.70
2018-12-29T10:45:08.485Z,10.53
2018-12-29T10:47:34.955Z,10.13
2018-12-29T10:50:01.189Z,12.00
2018-12-29T10:52:27.421Z,10.37
2018-12-29T10:54:53.690Z,11.87
2018-12-29T10:57:20.281Z,12.10
2018-12-29T10:59:46.901Z,11.40
2018-12-29T11:02:13.489Z,9.87
2018-12-29T11:04:39.819Z,10.33
2018-12-29T11:07:06.365Z,11.10
2018-12-29T11:09:32.669Z,10.30
2018-12-29T11:11:59.282Z,12.40
2018-12-29T11:14:25.900Z,10.03
2018-12-29T11:16:52.484Z,13.37
2018-12-29T11:19:19.077Z,15.10
2018-12-29T11:21:45.694Z,12.17
2018-12-29T11:24:11.926Z,13.73
2018-12-29T11:26:38.177Z,12.07
2018-12-29T11:29:04.779Z,10.13
2018-12-29T11:31:31.033Z,12.37
2018-12-29T11:33:57.657Z,10.87
2018-12-29T11:36:24.269Z,12.73
2018-12-29T11:38:50.532Z,10.50
2018-12-29T11:41:17.153Z,13.70
2018-12-29T11:43:43.385Z,11.97
2018-12-29T11:46:09.645Z,14.10
2018-12-29T11:48:36.245Z,12.53
2018-12-29T11:51:02.852Z,11.57
2018-12-29T11:53:29.633Z,11.60
2018-12-29T11:55:55.889Z,11.30
2018-12-29T11:58:22.113Z,12.93
2018-12-29T12:00:48.589Z,11.70
2018-12-29T12:03:15.179Z,13.27
2018-12-29T12:05:41.473Z,12.67
2018-12-29T12:08:08.098Z,10.17
2018-12-29T12:10:34.738Z,12.83
2018-12-29T12:13:01.239Z,11.27
2018-12-29T12:15:27.835Z,11.70
2018-12-29T12:17:57.492Z,8.97
2018-12-29T12:20:22.843Z,9.97
2018-12-29T12:22:49.453Z,10.60
2018-12-29T12:25:15.710Z,11.27
2018-12-29T12:27:42.269Z,10.87
2018-12-29T12:30:08.891Z,10.70
2018-12-29T12:32:35.130Z,11.23
2018-12-29T12:35:02.000Z,11.70
2018-12-29T12:37:28.266Z,10.47
2018-12-29T12:39:55.257Z,10.37
2018-12-29T12:42:21.871Z,10.80
2018-12-29T12:44:48.461Z,11.70
2018-12-29T12:47:15.285Z,12.50
2018-12-29T12:49:41.881Z,11.37
2018-12-29T12:52:08.121Z,12.13
2018-12-29T12:54:34.711Z,11.60
2018-12-29T12:57:00.971Z,13.37
2018-12-29T12:59:27.501Z,12.10
2018-12-29T13:01:54.114Z,13.30
2018-12-29T13:04:21.075Z,12.97
2018-12-29T13:06:47.366Z,13.93
2018-12-29T13:09:13.629Z,11.80
2018-12-29T13:11:40.185Z,14.03
2018-12-29T13:14:06.421Z,14.03
2018-12-29T13:16:33.049Z,13.37
2018-12-29T13:18:59.642Z,13.87
2018-12-29T13:21:26.239Z,12.57
2018-12-29T13:23:52.483Z,14.80
2018-12-29T13:26:18.722Z,12.47
2018-12-29T13:28:44.984Z,13.97
2018-12-29T13:31:11.209Z,12.90
2018-12-29T13:33:37.843Z,13.13
2018-12-29T13:36:04.174Z,13.10
2018-12-29T13:38:30.418Z,13.50
2018-12-29T13:40:56.662Z,13.93
2018-12-29T13:43:22.924Z,13.10
2018-12-29T13:45:49.558Z,12.73
2018-12-29T13:48:20.705Z,14.80
2018-12-29T13:50:44.298Z,15.10
2018-12-29T13:53:10.917Z,17.00
2018-12-29T13:55:37.504Z,13.77
2018-12-29T13:58:04.125Z,11.43
2018-12-29T14:00:30.716Z,14.80
2018-12-29T14:02:57.337Z,14.23
2018-12-29T14:05:23.789Z,13.63
2018-12-29T14:07:50.421Z,14.30
2018-12-29T14:10:18.038Z,14.57
2018-12-29T14:12:44.678Z,13.47
2018-12-29T14:15:11.257Z,13.13
2018-12-29T14:17:37.540Z,11.87
2018-12-29T14:20:04.589Z,14.43
2018-12-29T14:22:30.818Z,14.10
2018-12-29T14:24:57.441Z,11.93
2018-12-29T14:27:24.043Z,13.83
2018-12-29T14:29:50.660Z,11.50
2018-12-29T14:32:17.246Z,12.53
2018-12-29T14:34:43.518Z,12.43
2018-12-29T14:37:09.743Z,10.90
2018-12-29T14:39:36.018Z,11.30
2018-12-29T14:42:03.681Z,13.17
2018-12-29T14:44:30.304Z,13.30
2018-12-29T14:46:57.196Z,12.27
2018-12-29T14:49:23.445Z,11.10
2018-12-29T14:51:50.044Z,14.10
2018-12-29T14:54:16.645Z,11.57
2018-12-29T14:56:43.501Z,9.83
2018-12-29T14:59:09.761Z,10.30
2018-12-29T15:01:36.177Z,13.07
2018-12-29T15:04:02.801Z,11.53
2018-12-29T15:06:29.062Z,8.87
2018-12-29T15:08:55.692Z,10.93
2018-12-29T15:11:22.298Z,11.10
2018-12-29T15:13:48.913Z,11.97
2018-12-29T15:16:15.510Z,10.93
2018-12-29T15:18:43.743Z,10.50
2018-12-29T15:21:10.504Z,9.97
2018-12-29T15:23:37.102Z,11.90
2018-12-29T15:26:03.726Z,9.63
2018-12-29T15:28:30.550Z,12.77
2018-12-29T15:30:56.831Z,11.27
2018-12-29T15:33:23.522Z,10.47
2018-12-29T15:35:49.777Z,10.77
2018-12-29T15:38:16.362Z,10.63
2018-12-29T15:40:42.981Z,12.00
2018-12-29T15:43:09.219Z,11.30
2018-12-29T15:45:36.133Z,12.00
2018-12-29T15:48:02.722Z,13.17
2018-12-29T15:50:28.984Z,14.33
2018-12-29T15:52:55.660Z,11.77
2018-12-29T15:55:21.910Z,12.37
2018-12-29T15:57:48.142Z,10.63
2018-12-29T16:00:14.410Z,10.57
2018-12-29T16:02:41.009Z,10.60
2018-12-29T16:05:07.259Z,9.37
2018-12-29T16:07:34.180Z,12.17
2018-12-29T16:10:00.469Z,12.27
2018-12-29T16:12:26.721Z,12.07
2018-12-29T16:14:53.374Z,12.53
2018-12-29T16:17:19.604Z,11.87
2018-12-29T16:19:46.619Z,11.00
2018-12-29T16:22:13.212Z,10.60
2018-12-29T16:24:39.456Z,11.23
2018-12-29T16:27:06.064Z,10.43
2018-12-29T16:29:32.652Z,9.43
2018-12-29T16:31:58.922Z,12.53
2018-12-29T16:34:25.497Z,10.30
2018-12-29T16:36:52.112Z,11.47
2018-12-29T16:39:18.705Z,10.53
2018-12-29T16:41:45.066Z,8.47
2018-12-29T16:44:11.664Z,11.67
2018-12-29T16:46:37.926Z,10.27
2018-12-29T16:49:06.978Z,9.60
2018-12-29T16:51:32.600Z,11.17
2018-12-29T16:53:58.821Z,11.13
2018-12-29T16:56:25.537Z,12.17
2018-12-29T16:58:51.764Z,11.30
2018-12-29T17:01:18.026Z,11.77
2018-12-29T17:03:44.823Z,10.60
2018-12-29T17:06:11.094Z,11.17
2018-12-29T17:08:37.697Z,11.67
2018-12-29T17:11:04.351Z,11.67
2018-12-29T17:13:30.961Z,9.77
2018-12-29T17:15:57.577Z,10.37
2018-12-29T17:18:23.805Z,11.73
2018-12-29T17:20:50.438Z,12.60
2018-12-29T17:23:17.012Z,11.03
2018-12-29T17:25:43.607Z,11.43
2018-12-29T17:28:10.222Z,11.50
2018-12-29T17:30:36.801Z,10.80
2018-12-29T17:33:03.421Z,12.03
2018-12-29T17:35:29.948Z,11.83
2018-12-29T17:37:56.572Z,10.37
2018-12-29T17:40:22.801Z,11.60
2018-12-29T17:42:49.414Z,10.57
2018-12-29T17:45:16.014Z,11.30
2018-12-29T17:47:42.631Z,12.30
2018-12-29T17:50:09.217Z,10.20
2018-12-29T17:52:35.466Z,10.23
2018-12-29T17:55:02.467Z,11.30
2018-12-29T17:57:29.069Z,13.03
2018-12-29T17:59:55.303Z,11.07
2018-12-29T18:02:21.549Z,11.97
2018-12-29T18:04:48.145Z,11.57
2018-12-29T18:07:14.809Z,11.03
2018-12-29T18:09:41.070Z,10.53
2018-12-29T18:12:07.717Z,10.23
2018-12-29T18:14:33.942Z,10.80
2018-12-29T18:17:00.217Z,10.87
2018-12-29T18:19:30.787Z,11.67
2018-12-29T18:21:55.421Z,10.53
2018-12-29T18:24:21.646Z,11.00
2018-12-29T18:26:48.300Z,8.50
2018-12-29T18:29:14.529Z,10.63
2018-12-29T18:31:41.118Z,9.40
2018-12-29T18:34:08.017Z,9.93
2018-12-29T20:42:43.102Z,12.30
2018-12-29T20:45:09.774Z,11.23
2018-12-29T20:47:36.051Z,12.23
2018-12-29T20:50:09.456Z,11.37
2018-12-29T20:52:31.061Z,8.97
2018-12-29T20:54:57.901Z,11.20
2018-12-29T20:57:24.530Z,9.40
2018-12-29T21:00:09.789Z,10.77
2018-12-29T21:02:36.057Z,14.90
2018-12-29T21:05:02.347Z,12.77
2018-12-29T21:07:28.965Z,13.00
2018-12-29T21:09:55.610Z,11.30
2018-12-29T21:12:22.228Z,17.07
2018-12-29T21:14:48.517Z,13.37
2018-12-29T21:17:15.142Z,14.77
2018-12-29T21:19:42.045Z,15.30
2018-12-29T21:22:08.562Z,16.20
2018-12-29T21:24:35.234Z,15.33
2018-12-29T21:27:02.033Z,13.40
2018-12-29T21:29:28.298Z,11.93
2018-12-29T21:31:55.422Z,15.60
2018-12-29T21:34:22.039Z,12.60
2018-12-29T21:36:48.690Z,14.17
2018-12-29T21:39:15.625Z,13.60
2018-12-29T21:41:42.258Z,12.57
2018-12-29T21:44:08.885Z,12.80
2018-12-29T21:46:35.170Z,10.63
2018-12-29T21:49:02.617Z,13.30
2018-12-29T21:51:29.327Z,10.30
2018-12-29T21:53:55.634Z,11.70
2018-12-29T21:56:21.937Z,11.43
2018-12-29T21:58:48.378Z,12.37
2018-12-29T22:01:15.030Z,13.53
2018-12-29T22:03:41.654Z,11.77
2018-12-29T22:06:08.568Z,10.40
2018-12-29T22:08:35.241Z,10.77
2018-12-29T22:11:02.306Z,9.13
2018-12-29T22:13:28.920Z,10.47
2018-12-29T22:15:55.597Z,11.07
2018-12-29T22:18:21.927Z,8.83
2018-12-29T22:20:48.229Z,7.67
2018-12-29T22:23:14.523Z,9.90
2018-12-29T22:25:48.006Z,9.67
2018-12-29T22:28:09.357Z,8.87
2018-12-29T22:30:35.669Z,8.33
2018-12-29T22:33:01.986Z,9.23
2018-12-29T22:35:28.673Z,7.30
2018-12-29T22:37:55.605Z,8.37
2018-12-29T22:40:22.478Z,6.97
2018-12-29T22:42:51.325Z,6.33
2018-12-29T22:45:19.528Z,7.33
2018-12-29T22:47:46.164Z,6.00
2018-12-29T22:50:12.785Z,5.57
2018-12-29T22:52:39.346Z,5.80
2018-12-29T22:55:05.607Z,4.80
2018-12-29T22:57:31.946Z,6.13
2018-12-29T23:00:00.833Z,3.47
2018-12-29T23:02:27.594Z,3.27
2018-12-29T23:04:54.522Z,4.63
2018-12-29T23:07:21.589Z,3.50
2018-12-29T23:12:14.093Z,3.77
2018-12-29T23:14:40.777Z,3.30
2018-12-29T23:17:07.053Z,3.03
2018-12-29T23:19:33.342Z,6.03
2018-12-29T23:22:00.774Z,3.00
2018-12-29T23:24:27.069Z,2.10
2018-12-29T23:26:53.298Z,3.03
2018-12-29T23:29:20.176Z,4.00
2018-12-29T23:31:46.881Z,2.53
2018-12-29T23:34:13.161Z,2.87
2018-12-29T23:36:39.781Z,2.57
2018-12-29T23:39:06.049Z,3.00
2018-12-29T23:41:32.745Z,3.10
2018-12-29T23:43:59.052Z,2.20
2018-12-29T23:46:25.667Z,3.27
2018-12-29T23:48:52.319Z,2.53
2018-12-29T23:51:18.940Z,2.00
2018-12-29T23:53:45.879Z,1.87
2018-12-29T23:56:12.355Z,1.60
2018-12-29T23:58:38.986Z,4.13
